EBBR

Brussels Airport

Brussels, Belgium
METAR EBBR 162350Z 24008KT 9999 FEW026 00/M01 Q1020 NOSIG
Observed Flight Rules
Dec-16 @ 23:50 UTC (28 minutes ago) Visual Flight Rules
Wind Visibility Clouds
240° at 8 knots 10,000+ meters
  • Few at 2,600' AGL
Temperatures Readings
Current 0°C / 32°F
Dewpoint -1°C / 30°F
Humidity 93%
Altimeter 30.12" Hg
Pressure 1020 hPa
Elevation 58
METAR EBBR 162350Z 24008KT 9999 FEW026 00/M01 Q1020 NOSIG
Observed Flight Rules
Dec-16 @ 23:50 UTC
(28 minutes ago)
VFR
Wind Visibility
240° at 8 knots 10,000+ meters
Clouds
  • Few at 2,600' AGL
Temperature Dewpoint
0°C / 32°F -1°C / 30°F
Humidity Altimeter Pressure
93% 30.12" Hg 1020 hPa